This is the latest recevied weather packets stored in our database for station/object N2WH. If no packets are shown the sender has not sent any weather packets the latest 1 day(s).
| Time | Temp. | Humidity | Pressure | Rain* | Wind** | Luminosity | Snow |
|---|---|---|---|---|---|---|---|
| 1778027663 | 23.33° C | 44% | 1010.2 hPa | 0 mm | 0.45 m/s, 230° | 0 W/m² | - |
| 1778027360 | 23.33° C | 43% | 1010.2 hPa | 0 mm | 0.45 m/s, 133° | 0 W/m² | - |
| 1778027056 | 23.33° C | 43% | 1010.1 hPa | 0 mm | 0 m/s | 0 W/m² | - |
| 1778026751 | 23.33° C | 42% | 1009.8 hPa | 0 mm | 0.45 m/s, 151° | 0 W/m² | - |
| 1778026449 | 23.89° C | 41% | 1010 hPa | 0 mm | 0.45 m/s, 161° | 0 W/m² | - |
| 1778026146 | 23.89° C | 41% | 1010.1 hPa | 0 mm | 0.45 m/s, 160° | 0 W/m² | - |
| 1778025843 | 23.89° C | 40% | 1010 hPa | 0 mm | 0 m/s | 0 W/m² | - |
| 1778025540 | 23.89° C | 41% | 1010 hPa | 0 mm | 0.45 m/s, 242° | 0 W/m² | - |
| 1778025238 | 23.89° C | 40% | 1010.1 hPa | 0 mm | 0.45 m/s, 146° | 0 W/m² | - |
| 1778024934 | 24.44° C | 40% | 1009.8 hPa | 0 mm | 0.45 m/s, 150° | 2 W/m² | - |
| 1778024632 | 24.44° C | 39% | 1009.7 hPa | 0 mm | 0.45 m/s, 189° | 3 W/m² | - |
| 1778024328 | 24.44° C | 40% | 1009.8 hPa | 0 mm | 0.45 m/s, 139° | 3 W/m² | - |
| 1778024027 | 24.44° C | 39% | 1010 hPa | 0 mm | 0.45 m/s, 126° | 4 W/m² | - |
| 1778023724 | 24.44° C | 37% | 1009.5 hPa | 0 mm | 0.89 m/s, 226° | 6 W/m² | - |
| 1778023422 | 24.44° C | 38% | 1009.7 hPa | 0 mm | 0.89 m/s, 121° | 6 W/m² | - |
| 1778023118 | 24.44° C | 38% | 1009.6 hPa | 0 mm | 0.89 m/s, 139° | 8 W/m² | - |
| 1778022816 | 24.44° C | 38% | 1009.5 hPa | 0 mm | 0.45 m/s, 124° | 13 W/m² | - |
| 1778022514 | 24.44° C | 37% | 1009.4 hPa | 0 mm | 0.89 m/s, 196° | 20 W/m² | - |
| 1778022210 | 24.44° C | 37% | 1009.6 hPa | 0 mm | 0.45 m/s, 194° | 26 W/m² | - |
| 1778021907 | 25° C | 37% | 1009.6 hPa | 0 mm | 0.45 m/s, 201° | 28 W/m² | - |
| 1778021604 | 25° C | 36% | 1009.1 hPa | 0 mm | 0.89 m/s, 248° | 26 W/m² | - |
| 1778021299 | 25° C | 36% | 1009.1 hPa | 0 mm | 0.89 m/s, 206° | 30 W/m² | - |
| 1778020998 | 25.56° C | 35% | 1009.1 hPa | 0 mm | 0.45 m/s, 191° | 32 W/m² | - |
| 1778020694 | 25.56° C | 35% | 1009.1 hPa | 0 mm | 0.89 m/s, 130° | 32 W/m² | - |
| 1778020392 | 25.56° C | 36% | 1009.2 hPa | 0 mm | 0.45 m/s, 209° | 39 W/m² | - |
* Rain latest hour (hover to see other rain measurements)
** Current wind speed in m/s (hover to see current wind gust speed)